createdAt,value
2019-03-28T00:00:59.175Z,99.90
2019-03-28T00:03:29.449Z,99.90
2019-03-28T00:05:59.300Z,99.90
2019-03-28T00:08:29.236Z,99.90
2019-03-28T00:11:00.161Z,99.90
2019-03-28T00:13:30.307Z,99.90
2019-03-28T00:16:00.313Z,99.90
2019-03-28T00:18:30.213Z,99.90
2019-03-28T00:21:00.072Z,99.90
2019-03-28T00:23:41.094Z,99.90
2019-03-28T00:26:10.956Z,99.90
2019-03-28T00:28:40.780Z,99.90
2019-03-28T00:31:11.230Z,99.90
2019-03-28T00:33:41.156Z,99.90
2019-03-28T00:36:11.003Z,99.90
2019-03-28T00:38:41.265Z,99.90
2019-03-28T00:41:11.156Z,99.90
2019-03-28T00:43:41.330Z,99.90
2019-03-28T00:46:11.279Z,99.90
2019-03-28T00:48:41.112Z,99.90
2019-03-28T00:51:11.476Z,99.90
2019-03-28T00:53:41.686Z,99.90
2019-03-28T00:56:11.612Z,99.90
2019-03-28T00:58:41.513Z,99.90
2019-03-28T01:01:11.741Z,99.90
2019-03-28T01:03:41.578Z,99.90
2019-03-28T01:06:11.873Z,99.90
2019-03-28T01:08:41.715Z,99.90
2019-03-28T01:11:12.125Z,99.90
2019-03-28T01:13:42.192Z,99.90
2019-03-28T01:16:14.088Z,99.90
2019-03-28T01:18:45.696Z,99.90
2019-03-28T01:21:16.278Z,99.90
2019-03-28T01:23:46.289Z,99.90
2019-03-28T01:26:16.553Z,99.90
2019-03-28T01:28:46.473Z,99.90
2019-03-28T01:31:16.741Z,99.90
2019-03-28T01:33:46.562Z,99.90
2019-03-28T01:36:16.431Z,99.90
2019-03-28T01:38:46.307Z,99.90
2019-03-28T01:41:16.675Z,99.90
2019-03-28T01:43:46.510Z,99.90
2019-03-28T01:46:16.356Z,99.90
2019-03-28T01:48:46.542Z,99.90
2019-03-28T01:51:16.465Z,99.90
2019-03-28T01:53:46.442Z,99.90
2019-03-28T01:56:16.363Z,99.90
2019-03-28T01:58:46.269Z,99.90
2019-03-28T02:01:16.102Z,99.90
2019-03-28T02:03:46.404Z,99.90
2019-03-28T02:06:16.335Z,99.90
2019-03-28T02:08:46.571Z,99.90
2019-03-28T02:11:16.430Z,99.90
2019-03-28T02:13:46.300Z,99.90
2019-03-28T02:16:16.566Z,99.90
2019-03-28T02:18:46.414Z,99.90
2019-03-28T02:21:16.846Z,99.90
2019-03-28T02:23:46.721Z,99.90
2019-03-28T02:26:16.904Z,99.90
2019-03-28T02:28:46.798Z,99.90
2019-03-28T02:31:16.922Z,99.90
2019-03-28T02:33:46.958Z,99.90
2019-03-28T02:36:17.316Z,99.90
2019-03-28T02:38:47.202Z,99.90
2019-03-28T02:41:17.152Z,99.90
2019-03-28T02:43:47.061Z,99.90
2019-03-28T02:46:17.025Z,99.90
2019-03-28T02:48:46.924Z,99.90
2019-03-28T02:51:16.838Z,99.90
2019-03-28T02:53:47.164Z,99.90
2019-03-28T02:56:17.052Z,99.90
2019-03-28T02:58:46.943Z,99.90
2019-03-28T03:01:16.889Z,99.90
2019-03-28T03:03:46.819Z,99.90
2019-03-28T03:06:16.757Z,99.90
2019-03-28T03:08:46.577Z,99.90
2019-03-28T03:11:16.425Z,99.90
2019-03-28T03:13:46.260Z,99.90
2019-03-28T03:16:16.141Z,99.90
2019-03-28T03:18:46.058Z,99.90
2019-03-28T03:21:15.935Z,99.90
2019-03-28T03:23:46.582Z,99.90
2019-03-28T03:26:16.528Z,99.90
2019-03-28T03:28:46.534Z,99.90
2019-03-28T03:31:20.838Z,99.90
2019-03-28T03:33:48.046Z,99.90
2019-03-28T03:36:17.999Z,99.90
2019-03-28T03:38:48.067Z,99.90
2019-03-28T03:41:18.052Z,99.90
2019-03-28T03:43:47.940Z,99.90
2019-03-28T03:46:18.942Z,99.90
2019-03-28T03:48:48.794Z,99.90
2019-03-28T03:51:18.650Z,99.90
2019-03-28T03:53:48.546Z,99.90
2019-03-28T03:56:18.521Z,99.90
2019-03-28T03:58:48.425Z,99.90
2019-03-28T04:01:18.735Z,99.90
2019-03-28T04:03:48.854Z,99.90
2019-03-28T04:06:18.729Z,99.90
2019-03-28T04:08:48.574Z,99.90
2019-03-28T04:11:18.453Z,99.90
2019-03-28T04:13:48.274Z,99.90
2019-03-28T04:16:18.211Z,99.90
2019-03-28T04:18:48.142Z,99.90
2019-03-28T04:21:18.081Z,99.90
2019-03-28T04:23:47.935Z,99.90
2019-03-28T04:26:17.781Z,99.90
2019-03-28T04:28:47.709Z,99.90
2019-03-28T04:31:17.598Z,99.90
2019-03-28T04:33:48.201Z,99.90
2019-03-28T04:36:18.070Z,99.90
2019-03-28T04:38:47.987Z,99.90
2019-03-28T04:41:17.929Z,99.90
2019-03-28T04:43:47.889Z,99.90
2019-03-28T04:46:17.766Z,99.90
2019-03-28T04:48:50.570Z,99.90
2019-03-28T04:51:19.177Z,99.90
2019-03-28T04:53:49.014Z,99.90
2019-03-28T04:56:18.861Z,99.90
2019-03-28T04:58:49.356Z,99.90
2019-03-28T05:01:19.411Z,99.90
2019-03-28T05:03:49.439Z,99.90
2019-03-28T05:06:20.801Z,99.90
2019-03-28T05:08:50.666Z,99.90
2019-03-28T05:11:20.595Z,99.90
2019-03-28T05:13:50.452Z,99.90
2019-03-28T05:16:20.332Z,99.90
2019-03-28T05:18:50.240Z,99.90
2019-03-28T05:21:20.457Z,99.90
2019-03-28T05:23:50.682Z,99.90
2019-03-28T05:26:20.453Z,99.90
2019-03-28T05:28:57.427Z,99.90
2019-03-28T05:31:22.269Z,99.90
2019-03-28T05:33:52.180Z,99.90
2019-03-28T05:36:22.411Z,99.90
2019-03-28T05:38:52.349Z,99.90
2019-03-28T05:41:22.175Z,99.90
2019-03-28T05:43:52.083Z,99.90
2019-03-28T05:46:21.964Z,99.90
2019-03-28T05:48:51.798Z,99.90
2019-03-28T05:51:21.694Z,99.90
2019-03-28T05:53:51.903Z,99.90
2019-03-28T05:56:21.719Z,99.90
2019-03-28T05:58:51.538Z,99.90
2019-03-28T06:01:21.526Z,99.90
2019-03-28T06:03:51.335Z,99.90
2019-03-28T06:06:21.205Z,99.90
2019-03-28T06:08:51.773Z,99.90
2019-03-28T06:11:22.212Z,99.90
2019-03-28T06:13:52.080Z,99.90
2019-03-28T06:16:21.972Z,99.90
2019-03-28T06:18:52.252Z,99.90
2019-03-28T06:21:22.111Z,99.90
2019-03-28T06:23:51.940Z,99.90
2019-03-28T06:26:21.825Z,99.90
2019-03-28T06:28:51.664Z,99.90
2019-03-28T06:31:21.533Z,99.90
2019-03-28T06:33:51.381Z,99.90
2019-03-28T06:36:21.249Z,99.90
2019-03-28T06:38:51.873Z,99.90
2019-03-28T06:41:21.776Z,99.90
2019-03-28T06:43:51.628Z,99.90
2019-03-28T06:46:21.552Z,99.90
2019-03-28T06:48:51.442Z,99.90
2019-03-28T06:51:21.630Z,99.90
2019-03-28T06:53:51.487Z,99.90
2019-03-28T06:56:21.377Z,99.90
2019-03-28T06:58:51.639Z,99.90
2019-03-28T07:01:21.820Z,99.90
2019-03-28T07:03:51.718Z,99.90
2019-03-28T07:06:21.587Z,99.90
2019-03-28T07:08:51.466Z,99.90
2019-03-28T07:11:21.357Z,99.90
2019-03-28T07:13:51.208Z,99.90
2019-03-28T07:16:21.319Z,99.90
2019-03-28T07:18:51.764Z,99.90
2019-03-28T07:21:21.565Z,99.90
2019-03-28T07:23:51.393Z,99.90
2019-03-28T07:26:21.628Z,99.90
2019-03-28T07:28:54.181Z,99.90
2019-03-28T07:31:23.105Z,99.90
2019-03-28T07:33:53.008Z,99.90
2019-03-28T07:36:22.856Z,99.90
2019-03-28T07:38:52.737Z,99.90
2019-03-28T07:41:22.560Z,99.90
2019-03-28T07:43:52.406Z,99.90
2019-03-28T07:46:22.282Z,99.90
2019-03-28T07:48:52.441Z,99.90
2019-03-28T07:51:22.369Z,99.90
2019-03-28T07:53:52.215Z,99.90
2019-03-28T07:56:22.056Z,99.90
2019-03-28T07:58:51.929Z,99.90
2019-03-28T08:01:21.806Z,99.90
2019-03-28T08:03:51.660Z,99.90
2019-03-28T08:06:21.606Z,99.90
2019-03-28T08:08:51.485Z,99.90
2019-03-28T08:11:21.436Z,99.90
2019-03-28T08:13:51.285Z,99.90
2019-03-28T08:16:21.157Z,99.90
2019-03-28T08:18:51.007Z,99.90
2019-03-28T08:21:20.908Z,99.90
2019-03-28T08:23:50.805Z,99.90
2019-03-28T08:26:20.647Z,99.90
2019-03-28T08:28:50.544Z,99.90
2019-03-28T08:31:20.489Z,99.90
2019-03-28T08:33:50.409Z,99.90
2019-03-28T08:36:20.460Z,99.90
2019-03-28T08:38:52.039Z,99.90
2019-03-28T08:41:21.912Z,99.90
2019-03-28T08:43:51.740Z,99.90
2019-03-28T08:46:21.620Z,99.90
2019-03-28T08:48:51.464Z,99.90
2019-03-28T08:51:21.301Z,99.90
2019-03-28T08:53:51.196Z,99.90
2019-03-28T08:56:21.313Z,99.90
2019-03-28T08:58:51.293Z,99.90
2019-03-28T09:01:23.010Z,99.90
2019-03-28T09:03:52.929Z,99.90
2019-03-28T09:06:22.798Z,99.90
2019-03-28T09:08:52.916Z,99.90
2019-03-28T09:11:23.114Z,99.90
2019-03-28T09:13:53.357Z,99.90
2019-03-28T09:16:23.222Z,99.90
2019-03-28T09:18:54.413Z,99.90
2019-03-28T09:21:24.620Z,99.90
2019-03-28T09:23:54.560Z,99.90
2019-03-28T09:26:25.373Z,99.90
2019-03-28T09:28:55.290Z,99.90
2019-03-28T09:31:25.535Z,99.90
2019-03-28T09:33:55.390Z,99.90
2019-03-28T09:36:25.281Z,99.90
2019-03-28T09:38:55.554Z,99.90
2019-03-28T09:41:25.482Z,99.90
2019-03-28T09:43:56.065Z,99.90
2019-03-28T09:46:26.087Z,99.90
2019-03-28T09:48:56.174Z,99.90
2019-03-28T09:51:26.493Z,99.90
2019-03-28T09:53:56.561Z,99.90
2019-03-28T09:56:26.430Z,99.90
2019-03-28T09:58:56.340Z,99.90
2019-03-28T10:01:26.167Z,99.90
2019-03-28T10:03:56.026Z,99.90
2019-03-28T10:06:25.879Z,99.90
2019-03-28T10:08:56.138Z,99.90
2019-03-28T10:11:26.442Z,99.90
2019-03-28T10:13:56.277Z,99.90
2019-03-28T10:16:26.199Z,99.90
2019-03-28T10:18:56.537Z,99.90
2019-03-28T10:21:26.468Z,99.90
2019-03-28T10:23:56.877Z,99.90
2019-03-28T10:26:26.708Z,99.90
2019-03-28T10:28:56.568Z,99.90
2019-03-28T10:31:26.829Z,99.90
2019-03-28T10:33:56.684Z,99.90
2019-03-28T10:36:27.938Z,99.90
2019-03-28T10:38:58.020Z,99.90
2019-03-28T10:41:28.784Z,99.90
2019-03-28T10:43:58.995Z,99.90
2019-03-28T10:46:28.862Z,99.90
2019-03-28T10:48:58.840Z,99.90
2019-03-28T10:51:28.787Z,99.90
2019-03-28T10:53:58.738Z,99.90
2019-03-28T10:56:28.644Z,99.90
2019-03-28T10:58:58.539Z,99.90
2019-03-28T11:01:46.951Z,99.90
2019-03-28T11:04:00.017Z,99.90
2019-03-28T11:06:29.909Z,99.90
2019-03-28T11:09:00.756Z,99.90
2019-03-28T11:11:30.601Z,99.90
2019-03-28T11:14:01.053Z,99.90
2019-03-28T11:16:30.955Z,99.90
2019-03-28T11:19:00.842Z,99.90
2019-03-28T11:21:34.106Z,99.90
2019-03-28T11:24:02.262Z,99.90
2019-03-28T11:26:32.079Z,99.90
2019-03-28T11:29:02.216Z,99.90
2019-03-28T11:31:45.279Z,99.90
2019-03-28T11:34:05.035Z,99.90
2019-03-28T11:36:34.949Z,99.90
2019-03-28T11:39:08.096Z,99.90
2019-03-28T11:41:37.939Z,99.90
2019-03-28T11:44:07.772Z,99.90
2019-03-28T11:46:38.107Z,99.90
2019-03-28T11:49:07.944Z,99.90
2019-03-28T11:51:37.787Z,99.90
2019-03-28T11:54:07.727Z,99.90
2019-03-28T11:56:37.627Z,97.80
2019-03-28T11:59:08.664Z,97.50
2019-03-28T12:01:38.497Z,97.40
2019-03-28T12:04:08.669Z,98.50
2019-03-28T12:06:38.901Z,97.30
2019-03-28T12:09:08.897Z,97.60
2019-03-28T12:11:38.814Z,96.30
2019-03-28T12:14:08.674Z,96.00
2019-03-28T12:16:38.536Z,96.10
2019-03-28T12:19:08.370Z,97.30
2019-03-28T12:21:38.579Z,97.50
2019-03-28T12:24:08.452Z,97.00
2019-03-28T12:26:38.340Z,96.70
2019-03-28T12:29:08.928Z,96.80
2019-03-28T12:31:39.102Z,96.50
2019-03-28T12:34:09.149Z,96.10
2019-03-28T12:36:39.114Z,96.40
2019-03-28T12:39:08.939Z,96.10
2019-03-28T12:41:38.852Z,95.90
2019-03-28T12:44:08.711Z,95.60
2019-03-28T12:46:38.588Z,95.70
2019-03-28T12:49:08.628Z,95.50
2019-03-28T12:51:38.488Z,95.60
2019-03-28T12:54:08.419Z,96.30
2019-03-28T12:56:38.694Z,96.10
2019-03-28T12:59:09.784Z,95.40
2019-03-28T13:01:39.628Z,96.00
2019-03-28T13:04:09.488Z,95.30
2019-03-28T13:06:39.321Z,94.70
2019-03-28T13:09:10.720Z,94.80
2019-03-28T13:11:40.644Z,94.50
2019-03-28T13:14:11.039Z,94.50
2019-03-28T13:16:41.294Z,94.00
2019-03-28T13:19:11.150Z,93.60
2019-03-28T13:21:40.973Z,94.40
2019-03-28T13:24:10.831Z,94.00
2019-03-28T13:26:40.672Z,93.60
2019-03-28T13:29:10.692Z,94.00
2019-03-28T13:31:40.723Z,93.70
2019-03-28T13:34:10.569Z,94.50
2019-03-28T13:36:40.487Z,94.30
2019-03-28T13:39:10.720Z,94.90
2019-03-28T13:41:40.574Z,94.10
2019-03-28T13:44:12.378Z,95.80
2019-03-28T13:46:42.372Z,97.00
2019-03-28T13:49:12.216Z,96.60
2019-03-28T13:51:42.057Z,96.90
2019-03-28T13:54:12.076Z,96.80
2019-03-28T13:56:41.913Z,96.50
2019-03-28T13:59:13.189Z,97.40
2019-03-28T14:01:43.047Z,97.40
2019-03-28T14:04:12.999Z,96.50
2019-03-28T14:06:43.007Z,96.30
2019-03-28T14:09:13.114Z,96.90
2019-03-28T14:11:43.317Z,96.40
2019-03-28T14:14:13.234Z,95.50
2019-03-28T14:16:43.187Z,95.70
2019-03-28T14:19:13.321Z,96.20
2019-03-28T14:21:43.159Z,95.10
2019-03-28T14:24:13.126Z,95.10
2019-03-28T14:26:43.022Z,95.20
2019-03-28T14:29:12.850Z,94.40
2019-03-28T14:31:44.796Z,94.40
2019-03-28T14:34:14.744Z,95.10
2019-03-28T14:36:44.566Z,94.60
2019-03-28T14:39:14.394Z,95.60
2019-03-28T14:41:46.353Z,96.20
2019-03-28T14:44:15.968Z,97.50
2019-03-28T14:46:45.877Z,96.80
2019-03-28T14:49:16.554Z,98.00
2019-03-28T14:51:46.434Z,96.90
2019-03-28T14:54:16.424Z,97.60
2019-03-28T14:56:49.614Z,97.60
2019-03-28T14:59:31.734Z,99.10
2019-03-28T15:01:51.877Z,98.80
2019-03-28T15:04:21.711Z,99.90
2019-03-28T15:06:51.572Z,99.50
2019-03-28T15:09:21.425Z,99.30
2019-03-28T15:11:51.302Z,98.80
2019-03-28T15:14:21.502Z,98.50
2019-03-28T15:16:51.408Z,99.40
2019-03-28T15:19:21.326Z,98.90
2019-03-28T15:21:51.917Z,99.20
2019-03-28T15:24:21.766Z,98.70
2019-03-28T15:26:52.186Z,98.50
2019-03-28T15:29:22.273Z,99.90
2019-03-28T15:31:52.168Z,97.60
2019-03-28T15:34:22.116Z,97.40
2019-03-28T15:36:51.987Z,98.50
2019-03-28T15:39:22.113Z,98.90
2019-03-28T15:41:55.419Z,97.90
2019-03-28T15:44:25.677Z,97.80
2019-03-28T15:46:55.856Z,97.00
2019-03-28T15:49:26.113Z,97.50
2019-03-28T15:51:56.213Z,97.60
2019-03-28T15:54:26.486Z,96.70
2019-03-28T15:56:58.736Z,98.20
2019-03-28T15:59:28.775Z,96.80
2019-03-28T16:01:59.965Z,98.10
2019-03-28T16:04:30.059Z,97.70
2019-03-28T16:07:00.340Z,97.40
2019-03-28T16:09:30.225Z,97.90
2019-03-28T16:12:02.846Z,97.90
2019-03-28T16:14:31.765Z,96.90
2019-03-28T16:17:01.628Z,97.00
2019-03-28T16:19:34.745Z,97.10
2019-03-28T16:22:04.947Z,97.40
2019-03-28T16:24:34.890Z,97.20
2019-03-28T16:27:04.830Z,96.80
2019-03-28T16:29:34.682Z,97.00
2019-03-28T16:32:09.584Z,98.70
2019-03-28T16:34:43.178Z,99.30
2019-03-28T16:37:13.013Z,98.90
2019-03-28T16:39:43.422Z,99.30
2019-03-28T16:42:13.358Z,99.30
2019-03-28T16:44:43.213Z,98.60
2019-03-28T16:47:13.072Z,99.20
2019-03-28T16:49:43.026Z,98.70
2019-03-28T16:52:12.832Z,99.90
2019-03-28T16:54:42.694Z,99.90
2019-03-28T16:57:34.048Z,99.90
2019-03-28T17:00:27.920Z,99.90
2019-03-28T17:03:02.796Z,99.90
2019-03-28T17:05:34.742Z,99.90
2019-03-28T17:08:14.945Z,99.90
2019-03-28T17:10:54.976Z,99.90
2019-03-28T17:13:32.508Z,99.90
2019-03-28T17:16:08.011Z,99.90
2019-03-28T17:18:45.594Z,99.90
2019-03-28T17:21:15.547Z,99.90
2019-03-28T17:23:45.446Z,99.90
2019-03-28T17:26:15.630Z,99.90
2019-03-28T17:28:45.508Z,99.90
2019-03-28T17:31:15.395Z,99.90
2019-03-28T17:33:45.355Z,99.90
2019-03-28T17:36:15.268Z,99.90
2019-03-28T17:38:45.138Z,99.90
2019-03-28T17:41:16.104Z,99.90
2019-03-28T17:43:45.992Z,99.90
2019-03-28T17:46:15.860Z,99.90
2019-03-28T17:48:45.714Z,99.90
2019-03-28T17:51:15.595Z,99.90
2019-03-28T17:53:45.700Z,99.90
2019-03-28T17:56:16.024Z,99.90
2019-03-28T17:58:46.243Z,99.90
2019-03-28T18:01:16.113Z,99.90
2019-03-28T18:03:46.397Z,99.90
2019-03-28T18:06:16.265Z,99.90
2019-03-28T18:08:46.192Z,99.90
2019-03-28T18:11:34.670Z,99.90
2019-03-28T18:14:04.785Z,99.90
2019-03-28T18:16:34.740Z,99.90
2019-03-28T18:19:04.595Z,99.90
2019-03-28T18:21:34.462Z,99.90
2019-03-28T18:24:04.493Z,99.90
2019-03-28T18:26:34.459Z,99.90
2019-03-28T18:29:04.338Z,99.90
2019-03-28T18:31:34.320Z,99.90
2019-03-28T18:34:04.161Z,99.90
2019-03-28T18:36:34.010Z,99.90
2019-03-28T18:39:04.064Z,99.90
2019-03-28T18:41:34.020Z,99.90
2019-03-28T18:44:03.927Z,99.90
2019-03-28T18:46:33.762Z,99.90
2019-03-28T18:49:04.191Z,99.90
2019-03-28T18:51:34.724Z,99.90
2019-03-28T18:54:04.557Z,99.90
2019-03-28T18:56:34.433Z,99.90
2019-03-28T18:59:04.359Z,99.90
2019-03-28T19:01:34.226Z,99.90
2019-03-28T19:04:04.125Z,99.90
2019-03-28T19:06:33.990Z,99.90
2019-03-28T19:09:05.556Z,99.90
2019-03-28T19:11:35.415Z,99.90
2019-03-28T19:14:05.856Z,99.90
2019-03-28T19:16:35.820Z,99.90
2019-03-28T19:19:08.669Z,99.90
2019-03-28T19:21:40.285Z,99.90
2019-03-28T19:24:10.631Z,99.90
2019-03-28T19:26:42.633Z,99.90
2019-03-28T19:29:12.951Z,99.90
2019-03-28T19:31:42.986Z,99.90
2019-03-28T19:34:12.979Z,99.90
2019-03-28T19:36:44.995Z,99.90
2019-03-28T19:39:26.732Z,99.90
2019-03-28T19:41:57.058Z,99.90
2019-03-28T19:44:27.215Z,99.90
2019-03-28T19:46:57.040Z,99.90
2019-03-28T19:49:26.875Z,99.90
2019-03-28T19:51:56.722Z,99.90
2019-03-28T19:54:26.586Z,99.90
2019-03-28T19:56:57.423Z,99.90
2019-03-28T19:59:27.470Z,99.90
2019-03-28T20:01:57.317Z,99.90
2019-03-28T20:04:31.087Z,99.90
2019-03-28T20:07:01.117Z,99.90
2019-03-28T20:09:32.370Z,99.90
2019-03-28T20:12:09.103Z,99.90
2019-03-28T20:14:43.171Z,99.90
2019-03-28T20:17:16.493Z,99.90
2019-03-28T20:19:54.232Z,99.90
2019-03-28T20:22:24.371Z,99.90
2019-03-28T20:25:07.480Z,99.90
2019-03-28T20:27:45.831Z,99.90
2019-03-28T20:30:18.981Z,99.90
2019-03-28T20:32:53.166Z,99.90
2019-03-28T20:35:24.200Z,99.90
2019-03-28T20:37:54.679Z,99.90
2019-03-28T20:40:25.331Z,99.90
2019-03-28T20:42:58.236Z,99.90
2019-03-28T20:45:30.014Z,99.90
2019-03-28T20:48:09.892Z,99.90
2019-03-28T20:50:51.367Z,99.90
2019-03-28T20:53:24.608Z,99.90
2019-03-28T20:55:58.449Z,99.90
2019-03-28T20:58:36.865Z,99.90
2019-03-28T21:01:07.965Z,99.90
2019-03-28T21:03:38.506Z,99.90
2019-03-28T21:06:15.299Z,99.90
2019-03-28T21:08:40.371Z,99.90
2019-03-28T21:11:10.196Z,99.90
2019-03-28T21:13:40.066Z,99.90
2019-03-28T21:16:09.955Z,99.90
2019-03-28T21:18:39.807Z,99.90
2019-03-28T21:21:09.731Z,99.90
2019-03-28T21:23:39.657Z,99.90
2019-03-28T21:26:09.833Z,99.90
2019-03-28T21:28:46.960Z,99.90
2019-03-28T21:31:12.052Z,99.90
2019-03-28T21:33:41.996Z,99.90
2019-03-28T21:36:11.947Z,99.90
2019-03-28T21:38:42.275Z,99.90
2019-03-28T21:41:12.826Z,99.90
2019-03-28T21:43:42.683Z,99.90
2019-03-28T21:46:12.479Z,99.90
2019-03-28T21:48:43.006Z,99.90
2019-03-28T21:51:13.313Z,99.90
2019-03-28T21:53:44.014Z,99.90
2019-03-28T21:56:14.383Z,99.90
2019-03-28T21:58:44.416Z,99.90
2019-03-28T22:01:14.269Z,99.90
2019-03-28T22:03:44.523Z,99.90
2019-03-28T22:06:14.361Z,99.90
2019-03-28T22:08:44.213Z,99.90
2019-03-28T22:11:14.020Z,99.90
2019-03-28T22:13:43.872Z,99.90
2019-03-28T22:16:13.680Z,99.90
2019-03-28T22:18:43.490Z,99.90
2019-03-28T22:21:13.360Z,99.90
2019-03-28T22:23:43.510Z,99.90
2019-03-28T22:26:14.377Z,99.90
2019-03-28T22:28:44.382Z,99.90
2019-03-28T22:31:14.227Z,99.90
2019-03-28T22:33:44.488Z,99.90
2019-03-28T22:36:15.466Z,99.90
2019-03-28T22:38:45.386Z,99.90
2019-03-28T22:41:16.044Z,99.90
2019-03-28T22:43:46.394Z,99.90
2019-03-28T22:46:16.642Z,99.90
2019-03-28T22:48:46.813Z,99.90
2019-03-28T22:51:16.636Z,99.90
2019-03-28T22:53:46.470Z,99.90
2019-03-28T22:56:17.113Z,99.90
2019-03-28T22:58:47.386Z,99.90
2019-03-28T23:01:17.448Z,99.90
2019-03-28T23:03:47.306Z,99.90
2019-03-28T23:06:17.225Z,99.90
2019-03-28T23:08:47.121Z,99.90
2019-03-28T23:11:16.971Z,99.90
2019-03-28T23:13:47.121Z,99.90
2019-03-28T23:16:17.349Z,99.90
2019-03-28T23:18:48.874Z,99.90
2019-03-28T23:21:18.766Z,99.90
2019-03-28T23:23:48.621Z,99.90
2019-03-28T23:26:18.467Z,99.90
2019-03-28T23:28:48.351Z,99.90
2019-03-28T23:31:18.458Z,99.90
2019-03-28T23:33:48.287Z,99.90
2019-03-28T23:36:18.145Z,99.90
2019-03-28T23:38:48.049Z,99.90
2019-03-28T23:41:17.884Z,99.90
2019-03-28T23:43:48.235Z,99.90
2019-03-28T23:46:18.080Z,99.90
2019-03-28T23:48:48.182Z,99.90
2019-03-28T23:51:18.166Z,99.90
2019-03-28T23:53:48.011Z,99.90
2019-03-28T23:56:17.850Z,99.90
2019-03-28T23:58:47.715Z,99.90
